createdAt,value
2023-03-22T00:00:46.115Z,25.73
2023-03-22T00:05:47.567Z,22.65
2023-03-22T00:10:49.025Z,23.13
2023-03-22T00:15:50.502Z,24.90
2023-03-22T00:20:53.582Z,23.17
2023-03-22T00:25:55.105Z,21.20
2023-03-22T00:30:58.502Z,21.50
2023-03-22T00:36:01.761Z,18.65
2023-03-22T00:41:10.967Z,21.30
2023-03-22T00:46:12.967Z,24.77
2023-03-22T00:51:14.718Z,19.48
2023-03-22T00:56:16.489Z,21.70
2023-03-22T01:01:18.229Z,22.05
2023-03-22T01:06:19.699Z,23.33
2023-03-22T01:11:21.164Z,24.48
2023-03-22T01:16:22.645Z,17.95
2023-03-22T01:21:24.352Z,19.90
2023-03-22T01:26:25.848Z,20.00
2023-03-22T01:31:27.547Z,23.40
2023-03-22T01:36:29.043Z,22.70
2023-03-22T01:41:35.042Z,20.30
2023-03-22T01:46:36.737Z,22.23
2023-03-22T01:51:38.522Z,25.27
2023-03-22T01:56:41.004Z,24.17
2023-03-22T02:01:42.514Z,26.27
2023-03-22T02:06:44.472Z,23.15
2023-03-22T02:12:25.957Z,23.23
2023-03-22T02:17:51.318Z,25.92
2023-03-22T02:23:26.184Z,29.95
2023-03-22T02:28:57.816Z,23.77
2023-03-22T02:34:36.573Z,23.23
2023-03-22T02:39:56.123Z,27.98
2023-03-22T02:45:11.179Z,26.55
2023-03-22T02:50:52.428Z,24.92
2023-03-22T02:56:05.500Z,28.33
2023-03-22T03:01:08.757Z,25.27
2023-03-22T03:06:11.535Z,22.70
2023-03-22T03:11:13.020Z,24.10
2023-03-22T03:16:17.277Z,22.33
2023-03-22T03:21:42.471Z,22.45
2023-03-22T03:27:05.728Z,17.88
2023-03-22T03:32:11.837Z,15.48
2023-03-22T03:37:15.892Z,17.98
2023-03-22T03:42:17.385Z,21.40
2023-03-22T03:47:18.848Z,25.63
2023-03-22T03:52:24.403Z,17.08
2023-03-22T03:57:25.872Z,16.63
2023-03-22T04:02:27.429Z,19.83
2023-03-22T04:07:28.925Z,14.45
2023-03-22T04:12:31.045Z,15.77
2023-03-22T04:17:32.817Z,26.08
2023-03-22T04:22:34.520Z,14.70
2023-03-22T04:27:35.998Z,14.57
2023-03-22T04:32:37.583Z,15.82
2023-03-22T04:37:39.085Z,19.13
2023-03-22T04:42:40.545Z,17.55
2023-03-22T04:47:42.118Z,12.32
2023-03-22T04:52:43.629Z,18.85
2023-03-22T04:57:45.365Z,17.85
2023-03-22T05:02:46.901Z,16.88
2023-03-22T05:07:48.430Z,13.57
2023-03-22T05:12:49.947Z,14.15
2023-03-22T05:17:51.434Z,14.90
2023-03-22T05:22:56.715Z,17.27
2023-03-22T05:28:01.379Z,14.57
2023-03-22T05:33:04.189Z,16.08
2023-03-22T05:38:05.887Z,14.75
2023-03-22T05:43:07.417Z,13.57
2023-03-22T05:48:09.004Z,12.93
2023-03-22T05:53:11.580Z,11.95
2023-03-22T05:58:13.123Z,14.82
2023-03-22T06:03:16.822Z,12.90
2023-03-22T06:08:18.446Z,18.38
2023-03-22T06:13:20.306Z,12.60
2023-03-22T06:18:21.797Z,19.20
2023-03-22T06:23:23.260Z,14.90
2023-03-22T06:28:29.636Z,11.48
2023-03-22T06:33:31.113Z,12.85
2023-03-22T06:38:32.583Z,16.30
2023-03-22T06:43:34.065Z,15.70
2023-03-22T06:48:36.105Z,16.55
2023-03-22T06:53:37.702Z,12.50
2023-03-22T06:58:39.184Z,13.35
2023-03-22T07:03:40.650Z,15.23
2023-03-22T07:08:42.115Z,15.10
2023-03-22T07:13:45.069Z,17.48
2023-03-22T07:23:47.972Z,15.23
2023-03-22T07:28:49.433Z,15.27
2023-03-22T07:33:52.091Z,21.92
2023-03-22T07:38:53.553Z,21.23
2023-03-22T07:44:04.775Z,15.20
2023-03-22T07:49:12.888Z,16.08
2023-03-22T07:54:30.568Z,20.83
2023-03-22T07:59:34.249Z,15.75
2023-03-22T08:04:35.707Z,22.27
2023-03-22T08:09:37.447Z,20.63
2023-03-22T08:14:38.915Z,21.85
2023-03-22T08:19:40.375Z,23.20
2023-03-22T08:24:41.821Z,22.70
2023-03-22T08:29:43.322Z,28.88
2023-03-22T08:34:44.769Z,19.25
2023-03-22T08:39:46.239Z,20.17
2023-03-22T08:44:47.803Z,25.13
2023-03-22T08:49:49.252Z,21.35
2023-03-22T08:54:53.270Z,22.38
2023-03-22T08:59:56.658Z,28.98
2023-03-22T09:04:58.119Z,20.15
2023-03-22T09:09:59.591Z,20.80
2023-03-22T09:15:01.083Z,21.38
2023-03-22T09:20:11.905Z,23.10
2023-03-22T09:25:14.167Z,24.85
2023-03-22T09:30:15.957Z,23.08
2023-03-22T09:35:17.483Z,23.20
2023-03-22T09:40:19.377Z,22.55
2023-03-22T09:45:25.096Z,19.58
2023-03-22T09:50:31.285Z,18.67
2023-03-22T09:55:37.708Z,20.30
2023-03-22T10:00:47.798Z,20.05
2023-03-22T10:06:05.532Z,22.23
2023-03-22T10:11:16.675Z,18.90
2023-03-22T10:16:26.363Z,21.08
2023-03-22T10:21:27.878Z,19.42
2023-03-22T10:26:40.468Z,21.17
2023-03-22T10:31:43.250Z,15.93
2023-03-22T10:36:44.746Z,20.08
2023-03-22T10:41:46.398Z,20.35
2023-03-22T10:46:47.951Z,21.33
2023-03-22T10:51:50.093Z,21.40
2023-03-22T10:56:51.739Z,20.10
2023-03-22T11:01:53.382Z,17.50
2023-03-22T11:06:56.439Z,14.98
2023-03-22T11:11:59.494Z,20.02
2023-03-22T11:17:06.860Z,16.15
2023-03-22T11:22:20.250Z,21.17
2023-03-22T11:27:32.865Z,20.48
2023-03-22T11:32:38.091Z,19.27
2023-03-22T11:37:46.364Z,23.35
2023-03-22T11:42:48.966Z,17.88
2023-03-22T11:47:50.525Z,22.48
2023-03-22T11:52:52.448Z,21.50
2023-03-22T11:57:55.837Z,15.60
2023-03-22T12:03:01.959Z,12.05
2023-03-22T12:08:25.286Z,15.10
2023-03-22T12:13:43.101Z,11.93
2023-03-22T12:18:51.248Z,19.55
2023-03-22T12:23:52.702Z,14.77
2023-03-22T12:28:56.731Z,21.75
2023-03-22T12:34:01.425Z,14.70
2023-03-22T12:39:02.874Z,18.17
2023-03-22T12:44:18.044Z,11.30
2023-03-22T12:49:28.128Z,13.18
2023-03-22T12:54:29.588Z,17.58
2023-03-22T12:59:31.225Z,14.02
2023-03-22T13:04:50.138Z,17.77
2023-03-22T13:09:51.590Z,10.90
2023-03-22T13:14:57.983Z,15.73
2023-03-22T13:20:26.957Z,13.95
2023-03-22T13:25:30.397Z,15.30
2023-03-22T13:30:52.390Z,15.23
2023-03-22T13:35:56.758Z,11.00
2023-03-22T13:41:07.137Z,14.98
2023-03-22T13:46:17.833Z,12.85
2023-03-22T13:51:21.809Z,11.77
2023-03-22T13:56:46.745Z,10.60
2023-03-22T14:02:04.524Z,13.00
2023-03-22T14:07:30.910Z,11.40
2023-03-22T14:12:44.527Z,11.90
2023-03-22T14:18:14.052Z,11.25
